< < Back
Terminal Aerodrome Forecast


Current Version              Previous Versions:   1  2  3  4  5  6  7  8  9  

Terminal Aerodrome Forecast

062
FTUS42 KCAE 292053 AAB
TAFCAE
TAF AMD
KCAE 292053Z 2921/3018 29012KT P6SM VCSH SCT060 BKN080
     FM300000 27010KT P6SM SCT250
     FM300200 26005KT P6SM SCT250
     FM301400 26010KT P6SM SCT050=



Latest METAR

985
SAUS80 KWBC 292100
MTRCAE
METAR KCAE 292056Z VRB06KT 10SM SCT070 BKN100 36/20 A2989 RMK AO2 SLP117
T03610200 56014


USA.gov is the U.S. government's official web portal to all federal, state and local government web resources and services.